SEYT2: Wichita River near Seymour, TX

Data processed at Thu May 23 2019 23:50


All information presented herein is the property of the government of the United States of America and may be revised or deleted at any time without prior notice.
Dissemination of this information without the expressed written consent of the Public Affairs Office, Tulsa District U.S. Army Corps of Engineers is strictly prohibited.
These data are gathered electronically and, as presented, have not undergone any form of quality control. These data are not guaranteed to be valid or correct.
Go to home page.
Go to station list.
Go to home page.

Upstream stations:

Downstream station:
Previous Day
Next Day
Current Day
    
SHEF ID:       SEYT2     Wichita Rive nr Seymour, TX
STATION TYPE:  
Regulating: Stage =    12.00, Flow =     1963

               PRECIP     STAGE  RIV-FLOW  BAT-LOAD
                   in        ft       cfs      volt
              Ccp-Rev   Ccp-Rev   Ccp-Rev   Ccp-Rev
(US/Central)
05/23 00:00      0.00     12.04      1983     12.33
05/23 01:00      0.00     12.05      1989     12.17
05/23 02:00      0.00     12.02      1973     12.17
05/23 03:00      0.00     11.98      1952     12.17
05/23 04:00      0.00     11.99      1958     12.17
05/23 05:00      0.00     11.95      1937     12.17
05/23 06:00      0.00     11.96      1942     12.17
05/23 07:00      0.00     11.94      1932     12.17
05/23 08:00      0.00     11.78      1850     12.17
05/23 09:00      0.00     11.85      1886     12.17
05/23 10:00      0.00     11.83      1876     12.33
05/23 11:00      0.00     11.78      1850     12.81
05/23 12:00      0.00     11.69      1805     12.89
05/23 13:00      0.00     11.64      1780     13.05
05/23 14:00      0.00     11.53      1726     12.89
05/23 15:00      0.00     11.51      1716     12.89
05/23 16:00      0.00     11.54      1731     12.81
05/23 17:00      0.00     11.47      1697     12.81
05/23 18:00      0.00     11.38      1653     12.65
05/23 19:00      0.00     11.33      1629     12.65
05/23 20:00      0.00     11.27      1600     12.49
05/23 21:00      0.00     11.22      1577     12.41
05/23 22:00      0.00     11.17      1553     12.41
05/23 23:00      0.00     11.08      1511     12.25